Time;durP1;ratioP1;P1;durP2;ratioP2;P2;SDS_P1;SDS_P2;PMS_P1;PMS_P2;Temp;Humidity;BMP_temperature;BMP_pressure;BME280_temperature;BME280_humidity;BME280_pressure;Samples;Min_cycle;Max_cycle;Signal;HPM_P1;HPM_P2
2021/09/18 00:01:27;;;;;;;2.70;2.60;;;;;;;12.44;60.03;102395.28;6340288;28;20207;-71
2021/09/18 00:04:33;;;;;;;4.85;3.05;;;;;;;12.36;60.53;102388.03;6339441;28;20182;-72
2021/09/18 00:07:37;;;;;;;3.20;3.10;;;;;;;12.31;59.71;102408.78;6340315;28;20183;-72
2021/09/18 00:10:41;;;;;;;3.13;2.85;;;;;;;12.36;60.65;102409.91;6340127;28;20186;-72
2021/09/18 00:13:45;;;;;;;2.80;2.60;;;;;;;12.32;59.87;102405.88;6339928;28;20183;-72
2021/09/18 00:16:51;;;;;;;5.03;4.63;;;;;;;12.38;59.00;102405.09;6338589;28;20379;-72
2021/09/18 00:19:58;;;;;;;3.00;2.90;;;;;;;12.39;60.03;102397.72;6338432;28;20485;-72
2021/09/18 00:23:03;;;;;;;3.10;3.00;;;;;;;12.31;58.59;102395.97;6339968;28;20246;-72
2021/09/18 00:26:07;;;;;;;3.03;2.80;;;;;;;12.33;58.28;102399.34;6339392;28;20228;-72
2021/09/18 00:29:12;;;;;;;3.33;3.00;;;;;;;12.45;58.24;102403.28;6338261;28;20593;-72
2021/09/18 00:32:16;;;;;;;2.53;2.50;;;;;;;12.45;58.39;102414.22;6338331;28;20501;-72
2021/09/18 00:35:22;;;;;;;3.63;2.53;;;;;;;12.28;58.00;102415.50;6338125;28;20379;-72
2021/09/18 00:38:26;;;;;;;2.97;2.85;;;;;;;12.17;58.17;102415.97;6339444;28;20183;-72
2021/09/18 00:41:30;;;;;;;3.22;3.03;;;;;;;12.12;58.99;102418.41;6338499;28;20210;-71
2021/09/18 00:44:35;;;;;;;2.78;2.78;;;;;;;12.12;58.29;102412.94;6338252;28;20229;-72
2021/09/18 00:47:39;;;;;;;3.85;2.38;;;;;;;12.19;57.94;102413.91;6339207;28;20186;-71
2021/09/18 00:50:45;;;;;;;2.70;2.60;;;;;;;12.19;59.12;102419.38;6339119;28;20240;-71
2021/09/18 00:53:50;;;;;;;2.90;2.80;;;;;;;12.23;58.59;102426.16;6339002;28;20254;-72
2021/09/18 00:56:55;;;;;;;2.70;2.60;;;;;;;12.09;57.88;102418.81;6338844;28;20234;-72
2021/09/18 01:00:02;;;;;;;2.70;2.60;;;;;;;12.02;57.22;102423.31;6338444;28;20183;-72
2021/09/18 01:03:14;;;;;;;6.93;6.28;;;;;;;12.01;56.90;102420.78;6308093;23;20232;-72
2021/09/18 01:06:21;;;;;;;4.65;4.25;;;;;;;12.17;56.86;102420.59;6313036;28;20184;-72
2021/09/18 01:09:26;;;;;;;3.80;2.58;;;;;;;12.07;56.41;102425.50;6313366;28;20258;-71
2021/09/18 01:12:31;;;;;;;3.35;3.13;;;;;;;12.18;56.06;102423.13;6313571;28;20193;-72
2021/09/18 01:15:38;;;;;;;3.00;2.80;;;;;;;12.02;55.68;102427.97;6312115;28;20402;-72
2021/09/18 01:18:43;;;;;;;2.33;2.13;;;;;;;12.13;55.18;102420.13;6313279;28;20221;-72
2021/09/18 01:21:49;;;;;;;2.22;2.17;;;;;;;12.33;54.12;102432.19;6312825;28;20245;-72
2021/09/18 01:24:55;;;;;;;3.58;2.20;;;;;;;12.07;54.78;102437.28;6312917;28;20251;-72
2021/09/18 01:27:59;;;;;;;2.30;2.20;;;;;;;12.01;54.55;102431.72;6313188;28;20198;-71
2021/09/18 01:31:04;;;;;;;2.13;2.03;;;;;;;11.98;54.96;102432.94;6313256;28;20217;-71
2021/09/18 01:34:09;;;;;;;2.00;1.90;;;;;;;12.05;54.97;102431.16;6312533;28;20190;-72
2021/09/18 01:37:14;;;;;;;2.30;2.10;;;;;;;11.91;55.56;102432.00;6311691;28;20542;-72
2021/09/18 01:40:23;;;;;;;2.47;2.22;;;;;;;11.96;55.55;102442.38;6313063;28;20229;-72
2021/09/18 01:43:29;;;;;;;2.55;2.45;;;;;;;11.92;56.94;102439.16;6312752;28;20215;-71
2021/09/18 01:46:33;;;;;;;1.92;1.92;;;;;;;11.91;55.63;102442.94;6312845;28;20247;-72
2021/09/18 01:49:38;;;;;;;2.67;2.25;;;;;;;11.99;55.52;102445.59;6311381;28;20409;-72
2021/09/18 01:52:47;;;;;;;2.38;2.28;;;;;;;11.94;57.48;102442.56;6312779;28;20195;-71
2021/09/18 01:55:54;;;;;;;1.98;1.80;;;;;;;12.03;56.95;102430.50;6311397;28;20439;-72
2021/09/18 01:58:58;;;;;;;2.00;2.00;;;;;;;11.91;56.63;102442.94;6312717;28;20183;-72
2021/09/18 02:02:03;;;;;;;1.83;1.83;;;;;;;11.97;56.60;102447.66;6311208;28;20238;-72
2021/09/18 02:05:13;;;;;;;2.25;2.13;;;;;;;12.01;56.84;102449.00;6311571;28;20183;-71
2021/09/18 02:08:17;;;;;;;2.20;2.10;;;;;;;11.89;57.54;102450.47;6312548;28;20232;-72
2021/09/18 02:11:23;;;;;;;3.90;2.20;;;;;;;12.05;57.35;102444.84;6312634;28;20255;-71
2021/09/18 02:14:28;;;;;;;2.55;2.35;;;;;;;12.00;58.29;102438.22;6311130;28;20500;-72
2021/09/18 02:17:33;;;;;;;2.08;1.98;;;;;;;11.74;56.89;102447.72;6312160;28;20183;-72
2021/09/18 02:20:39;;;;;;;2.72;2.30;;;;;;;11.93;57.85;102440.88;6312145;28;20187;-72
2021/09/18 02:23:44;;;;;;;1.85;1.73;;;;;;;11.81;56.72;102439.66;6312295;28;20274;-72
2021/09/18 02:26:49;;;;;;;2.15;1.95;;;;;;;11.90;56.58;102444.84;6312434;28;20256;-72
2021/09/18 02:29:53;;;;;;;2.13;2.03;;;;;;;12.03;57.36;102451.53;6310863;28;20221;-72
2021/09/18 02:32:59;;;;;;;2.45;1.77;;;;;;;11.92;57.30;102450.09;6312056;28;20194;-72
2021/09/18 02:36:04;;;;;;;2.00;2.00;;;;;;;11.88;57.07;102444.19;6311530;28;20183;-72
2021/09/18 02:39:09;;;;;;;2.20;2.20;;;;;;;11.86;57.92;102451.69;6312093;28;20183;-72
2021/09/18 02:42:15;;;;;;;2.20;2.20;;;;;;;11.81;57.46;102459.59;6312058;28;20317;-72
2021/09/18 02:45:20;;;;;;;2.17;2.08;;;;;;;11.66;59.44;102446.91;6310711;28;20448;-72
2021/09/18 02:48:24;;;;;;;2.17;1.70;;;;;;;11.80;58.21;102441.53;6312322;28;20222;-72
2021/09/18 02:51:32;;;;;;;3.63;1.90;;;;;;;11.74;58.95;102438.66;6311709;28;20215;-72
2021/09/18 02:54:36;;;;;;;1.92;1.83;;;;;;;11.81;58.88;102436.91;6311014;28;20183;-72
2021/09/18 02:57:43;;;;;;;1.70;1.60;;;;;;;11.68;58.02;102442.13;6310848;28;20251;-72
2021/09/18 03:00:47;;;;;;;1.80;1.80;;;;;;;11.72;59.19;102448.94;6311963;28;20183;-72
2021/09/18 03:03:51;;;;;;;1.60;1.60;;;;;;;11.76;58.43;102448.38;6311226;28;20562;-72
2021/09/18 03:06:56;;;;;;;1.90;1.83;;;;;;;11.78;59.13;102453.69;6311613;28;20184;-73
2021/09/18 03:10:00;;;;;;;1.98;1.80;;;;;;;11.87;58.19;102441.59;6311868;28;20184;-72
2021/09/18 03:13:07;;;;;;;1.77;1.58;;;;;;;11.85;57.34;102449.16;6310505;28;20476;-72
2021/09/18 03:16:11;;;;;;;2.00;1.90;;;;;;;11.73;57.44;102442.44;6312711;28;20259;-72
2021/09/18 03:19:15;;;;;;;1.75;1.65;;;;;;;11.78;56.78;102443.59;6314854;28;20214;-71
2021/09/18 03:22:20;;;;;;;1.50;1.50;;;;;;;11.79;57.38;102444.44;6314798;28;20219;-72
2021/09/18 03:25:24;;;;;;;2.90;1.40;;;;;;;11.73;56.59;102453.38;6315721;28;20184;-71
2021/09/18 03:28:29;;;;;;;3.13;1.90;;;;;;;11.82;57.13;102446.78;6315752;28;20183;-72
2021/09/18 03:31:34;;;;;;;1.40;1.40;;;;;;;11.89;57.62;102461.41;6314957;28;20205;-72
2021/09/18 03:34:39;;;;;;;2.85;1.50;;;;;;;11.88;58.60;102454.25;6314619;28;20393;-72
2021/09/18 03:37:43;;;;;;;1.88;1.88;;;;;;;11.97;56.87;102446.84;6315118;28;20187;-72
2021/09/18 03:40:47;;;;;;;4.40;1.65;;;;;;;11.94;56.53;102453.50;6315540;28;20184;-72
2021/09/18 03:43:53;;;;;;;1.65;1.58;;;;;;;11.85;57.01;102449.16;6314283;28;20477;-72
2021/09/18 03:46:58;;;;;;;1.40;1.40;;;;;;;11.89;58.49;102450.47;6315762;28;20246;-72
2021/09/18 03:50:02;;;;;;;1.55;1.45;;;;;;;11.85;57.63;102451.91;6314219;28;20187;-71
2021/09/18 03:53:07;;;;;;;1.45;1.40;;;;;;;11.96;57.81;102456.91;6314251;28;20376;-72
2021/09/18 03:56:11;;;;;;;2.75;2.03;;;;;;;11.87;56.71;102458.03;6314113;28;20490;-71
2021/09/18 03:59:17;;;;;;;2.15;1.60;;;;;;;11.87;58.27;102452.56;6314740;28;20373;-72
2021/09/18 04:02:22;;;;;;;1.10;1.10;;;;;;;11.94;57.02;102458.97;6315087;28;20298;-72
2021/09/18 04:05:26;;;;;;;2.83;1.40;;;;;;;11.85;56.02;102465.56;6313891;28;20483;-72
2021/09/18 04:08:30;;;;;;;1.88;1.30;;;;;;;11.84;57.17;102459.25;6313822;28;20445;-72
2021/09/18 04:11:35;;;;;;;1.27;1.27;;;;;;;11.70;55.91;102468.28;6314976;28;20188;-72
2021/09/18 04:14:41;;;;;;;5.25;1.38;;;;;;;11.81;55.74;102461.53;6314635;28;20201;-72
2021/09/18 04:17:45;;;;;;;1.30;1.30;;;;;;;11.85;55.40;102465.56;6313524;28;20466;-72
2021/09/18 04:20:49;;;;;;;1.20;1.20;;;;;;;11.68;55.72;102464.88;6314830;28;20215;-71
2021/09/18 04:23:53;;;;;;;1.33;1.20;;;;;;;11.67;55.86;102473.22;6314778;28;20239;-72
2021/09/18 04:26:58;;;;;;;1.80;1.40;;;;;;;11.67;55.39;102473.22;6314013;28;20215;-72
2021/09/18 04:30:05;;;;;;;1.55;1.45;;;;;;;11.72;55.30;102473.56;6314306;28;20188;-71
2021/09/18 04:33:14;;;;;;;1.50;1.40;;;;;;;11.73;55.06;102473.38;6313151;28;20382;-71
2021/09/18 04:36:19;;;;;;;1.50;1.45;;;;;;;11.79;55.90;102488.19;6313451;28;20183;-73
2021/09/18 04:39:23;;;;;;;2.50;1.30;;;;;;;11.93;55.05;102480.03;6314341;28;20191;-72
2021/09/18 04:42:27;;;;;;;1.50;1.50;;;;;;;11.73;54.69;102494.41;6313008;28;20518;-72
2021/09/18 04:45:33;;;;;;;1.58;1.25;;;;;;;11.82;54.85;102504.22;6313801;28;20243;-71
2021/09/18 04:48:38;;;;;;;1.50;1.50;;;;;;;11.75;55.68;102503.28;6313893;28;20183;-72
2021/09/18 04:51:42;;;;;;;1.50;1.50;;;;;;;11.82;55.64;102498.75;6313125;28;20189;-71
2021/09/18 04:54:46;;;;;;;2.03;1.42;;;;;;;11.78;55.28;102497.44;6313718;28;20187;-72
2021/09/18 04:57:51;;;;;;;1.20;1.20;;;;;;;11.80;55.10;102512.63;6313631;28;20246;-72
2021/09/18 05:00:56;;;;;;;1.80;1.40;;;;;;;11.90;54.75;102515.09;6312543;28;20367;-71
2021/09/18 05:04:01;;;;;;;1.10;1.10;;;;;;;11.93;54.85;102523.78;6312431;28;20242;-72
2021/09/18 05:07:05;;;;;;;1.15;1.15;;;;;;;11.98;54.39;102504.06;6314061;28;20194;-72
2021/09/18 05:10:12;;;;;;;1.60;1.52;;;;;;;12.01;55.03;102519.25;6313338;28;20184;-72
2021/09/18 05:13:17;;;;;;;1.60;1.50;;;;;;;11.86;55.64;102527.44;6313198;28;20188;-71
2021/09/18 05:16:22;;;;;;;2.53;1.30;;;;;;;11.78;56.02;102519.31;6312137;28;20513;-72
2021/09/18 05:19:27;;;;;;;1.55;1.48;;;;;;;11.79;55.60;102519.13;6312034;28;20476;-72
2021/09/18 05:22:31;;;;;;;1.33;1.33;;;;;;;11.82;55.43;102520.63;6313371;28;20190;-72
2021/09/18 05:25:36;;;;;;;1.38;1.38;;;;;;;11.98;55.73;102517.75;6311841;28;20370;-72
2021/09/18 05:28:40;;;;;;;1.40;1.30;;;;;;;11.92;57.07;102513.00;6311903;28;20247;-72
2021/09/18 05:31:46;;;;;;;1.30;1.30;;;;;;;12.01;58.12;102511.91;6313261;28;20190;-72
2021/09/18 05:34:51;;;;;;;1.38;1.38;;;;;;;11.96;57.19;102517.09;6311747;28;20188;-72
2021/09/18 05:37:55;;;;;;;1.65;1.55;;;;;;;11.99;56.83;102527.69;6312371;28;20195;-72
2021/09/18 05:40:59;;;;;;;1.33;1.33;;;;;;;12.03;57.10;102526.25;6312087;28;20184;-72
2021/09/18 05:44:04;;;;;;;1.33;1.33;;;;;;;12.01;57.51;102528.34;6312772;28;20207;-72
2021/09/18 05:47:10;;;;;;;1.55;1.33;;;;;;;11.97;56.58;102529.72;6311625;28;20183;-72
2021/09/18 05:50:14;;;;;;;1.20;1.10;;;;;;;12.04;56.91;102522.50;6311895;28;20258;-72
2021/09/18 05:53:19;;;;;;;1.70;1.42;;;;;;;12.00;57.72;102529.34;6312529;28;20183;-72
2021/09/18 05:56:23;;;;;;;1.23;1.23;;;;;;;12.02;58.69;102531.94;6311461;28;20268;-71
2021/09/18 05:59:37;;;;;;;3.90;1.60;;;;;;;12.13;57.57;102529.56;6311404;28;20374;-72
2021/09/18 06:02:43;;;;;;;1.33;1.30;;;;;;;12.07;60.37;102533.03;6311960;28;20261;-72
2021/09/18 06:05:48;;;;;;;1.20;1.20;;;;;;;12.10;58.55;102535.41;6311218;28;20403;-72
2021/09/18 06:08:53;;;;;;;1.30;1.30;;;;;;;12.09;59.20;102527.41;6312160;28;20215;-72
2021/09/18 06:11:57;;;;;;;2.65;1.40;;;;;;;11.94;57.69;102541.03;6311260;28;20489;-72
2021/09/18 06:15:01;;;;;;;1.33;1.33;;;;;;;11.99;58.64;102543.22;6312168;28;20255;-71
2021/09/18 06:18:08;;;;;;;1.42;1.30;;;;;;;11.99;57.89;102533.16;6312567;28;20191;-72
2021/09/18 06:21:15;;;;;;;1.67;1.42;;;;;;;12.01;58.47;102547.47;6312213;28;20183;-72
2021/09/18 06:24:19;;;;;;;2.05;1.45;;;;;;;12.06;59.55;102528.63;6311078;28;20401;-72
2021/09/18 06:27:23;;;;;;;2.95;1.33;;;;;;;12.11;57.97;102542.59;6311945;28;20219;-72
2021/09/18 06:30:28;;;;;;;1.77;1.65;;;;;;;12.13;57.36;102539.66;6311036;28;20376;-72
2021/09/18 06:33:34;;;;;;;1.30;1.30;;;;;;;12.15;57.99;102543.91;6312284;28;20253;-72
2021/09/18 06:36:39;;;;;;;1.27;1.27;;;;;;;12.08;57.59;102545.69;6310875;28;20226;-72
2021/09/18 06:39:43;;;;;;;1.20;1.20;;;;;;;12.06;58.50;102538.72;6311897;28;20229;-73
2021/09/18 06:42:48;;;;;;;1.77;1.60;;;;;;;12.11;57.29;102542.59;6311826;28;20184;-73
2021/09/18 06:45:52;;;;;;;1.50;1.48;;;;;;;12.18;57.88;102549.00;6311630;28;20211;-73
2021/09/18 06:48:58;;;;;;;1.58;1.58;;;;;;;12.16;58.15;102556.56;6311018;28;20206;-73
2021/09/18 06:52:05;;;;;;;1.45;1.35;;;;;;;12.26;58.57;102551.69;6316144;28;20191;-72
2021/09/18 06:55:10;;;;;;;1.30;1.30;;;;;;;12.22;59.32;102564.00;6316812;28;20192;-73
2021/09/18 06:58:14;;;;;;;1.35;1.35;;;;;;;12.34;58.31;102558.94;6316699;28;20264;-73
2021/09/18 07:01:18;;;;;;;1.20;1.20;;;;;;;12.34;57.76;102559.81;6316311;28;20190;-73
2021/09/18 07:04:24;;;;;;;1.50;1.30;;;;;;;12.40;57.69;102564.50;6316047;28;20232;-73
2021/09/18 07:07:29;;;;;;;1.52;1.42;;;;;;;12.54;56.83;102560.09;6316495;28;20184;-73
2021/09/18 07:10:36;;;;;;;3.33;1.30;;;;;;;12.33;55.63;102574.50;6316143;28;20183;-72
2021/09/18 07:13:40;;;;;;;1.33;1.20;;;;;;;12.35;54.93;102572.44;6315032;28;20188;-73
2021/09/18 07:16:44;;;;;;;1.30;1.10;;;;;;;12.57;54.09;102577.00;6316401;28;20187;-73
2021/09/18 07:19:50;;;;;;;1.40;1.40;;;;;;;12.45;53.72;102589.44;6314935;28;20371;-73
2021/09/18 07:22:54;;;;;;;1.23;1.23;;;;;;;12.69;53.22;102580.09;6316250;28;20250;-73
2021/09/18 07:25:59;;;;;;;1.50;1.00;;;;;;;12.60;52.28;102574.94;6314843;28;20274;-72
2021/09/18 07:29:03;;;;;;;1.30;1.30;;;;;;;12.62;51.96;102578.31;6315100;28;20260;-73
2021/09/18 07:32:08;;;;;;;1.10;1.10;;;;;;;12.50;51.97;102584.28;6314428;28;20367;-73
2021/09/18 07:35:14;;;;;;;3.70;1.40;;;;;;;12.49;50.89;102568.88;6315530;28;20187;-73
2021/09/18 07:38:18;;;;;;;1.52;1.45;;;;;;;12.56;51.59;102574.44;6314880;28;20184;-73
2021/09/18 07:41:23;;;;;;;1.38;1.38;;;;;;;12.54;53.30;102582.00;6315749;28;20183;-73
2021/09/18 07:44:27;;;;;;;1.27;1.27;;;;;;;12.45;51.86;102589.44;6314052;28;20411;-73
2021/09/18 07:47:31;;;;;;;1.45;1.35;;;;;;;12.47;50.99;102579.16;6315507;28;20206;-73
2021/09/18 07:50:38;;;;;;;2.95;1.30;;;;;;;12.62;51.79;102578.31;6315353;28;20184;-73
2021/09/18 07:53:42;;;;;;;1.50;1.45;;;;;;;12.37;51.42;102586.81;6314538;28;20184;-73
2021/09/18 07:56:47;;;;;;;3.50;1.20;;;;;;;12.50;51.32;102592.50;6315439;28;20255;-73
2021/09/18 07:59:51;;;;;;;1.27;1.25;;;;;;;12.45;51.81;102581.22;6315482;28;20194;-73
2021/09/18 08:02:57;;;;;;;3.90;1.40;;;;;;;12.42;51.88;102583.50;6313112;28;20481;-73
2021/09/18 08:06:03;;;;;;;1.58;1.48;;;;;;;12.45;52.50;102591.34;6314016;28;20321;-73
2021/09/18 08:09:08;;;;;;;1.52;1.52;;;;;;;12.37;52.78;102583.22;6314492;28;20192;-73
2021/09/18 08:12:12;;;;;;;1.30;1.30;;;;;;;12.33;53.15;102590.94;6313710;28;20183;-74
2021/09/18 08:15:18;;;;;;;1.40;1.30;;;;;;;12.30;53.27;102599.50;6315146;28;20195;-73
2021/09/18 08:18:22;;;;;;;1.50;1.50;;;;;;;12.55;53.51;102595.53;6313398;28;20353;-73
2021/09/18 08:21:28;;;;;;;1.75;1.50;;;;;;;12.90;52.67;102604.00;6313439;28;20183;-74
2021/09/18 08:24:32;;;;;;;2.30;1.52;;;;;;;12.89;52.87;102596.84;6313299;28;20183;-73
2021/09/18 08:27:37;;;;;;;1.20;1.20;;;;;;;12.92;53.73;102596.44;6314465;28;20249;-73
2021/09/18 08:30:42;;;;;;;7.10;1.35;;;;;;;12.86;53.65;102597.22;6314244;28;20215;-73
2021/09/18 08:33:47;;;;;;;1.10;1.10;;;;;;;12.88;52.90;102595.13;6313949;28;20194;-73
2021/09/18 08:36:52;;;;;;;1.40;1.40;;;;;;;12.94;51.94;102589.72;6313929;28;20256;-73
2021/09/18 08:39:57;;;;;;;1.25;1.25;;;;;;;12.91;52.41;102597.50;6314217;28;20184;-73
2021/09/18 08:43:01;;;;;;;1.58;1.52;;;;;;;12.80;51.63;102603.44;6312764;28;20253;-72
2021/09/18 08:46:06;;;;;;;1.20;1.20;;;;;;;12.81;51.58;102596.94;6313044;28;20510;-73
2021/09/18 08:49:12;;;;;;;1.40;1.40;;;;;;;12.83;50.92;102597.59;6313985;28;20191;-73
2021/09/18 08:52:18;;;;;;;1.98;1.42;;;;;;;12.81;50.58;102610.63;6313686;28;20260;-73
2021/09/18 08:55:23;;;;;;;1.50;1.50;;;;;;;12.91;50.25;102605.72;6312711;28;20371;-73
2021/09/18 08:58:28;;;;;;;1.30;1.30;;;;;;;12.83;50.96;102614.88;6313524;28;20184;-73
2021/09/18 09:01:33;;;;;;;1.30;1.30;;;;;;;12.73;51.32;102608.84;6313827;28;20229;-73
2021/09/18 09:04:38;;;;;;;1.30;1.30;;;;;;;12.93;50.67;102609.09;6312336;28;20223;-74
2021/09/18 09:08:05;;;;;;;1.40;1.30;;;;;;;12.79;52.23;102613.53;6313336;28;20217;-75
2021/09/18 09:11:21;;;;;;;1.30;1.30;;;;;;;12.84;51.81;102615.75;6312118;28;20404;-74
2021/09/18 09:14:44;;;;;;;1.63;1.55;;;;;;;12.93;51.24;102620.06;6310948;28;20437;-74
2021/09/18 09:17:52;;;;;;;1.73;1.50;;;;;;;13.09;50.93;102608.94;6311859;28;20188;-73
2021/09/18 09:21:11;;;;;;;1.60;1.60;;;;;;;13.09;52.16;102614.44;6313103;28;20188;-73
2021/09/18 09:24:18;;;;;;;1.58;1.58;;;;;;;13.29;50.07;102618.28;6312932;28;20194;-73
2021/09/18 09:27:22;;;;;;;2.03;1.55;;;;;;;13.21;49.15;102612.88;6313004;28;20218;-73
2021/09/18 09:30:30;;;;;;;1.63;1.40;;;;;;;12.98;49.49;102618.47;6311543;28;20471;-73
2021/09/18 09:33:35;;;;;;;1.38;1.38;;;;;;;13.12;48.90;102608.56;6311496;28;20250;-73
2021/09/18 09:36:42;;;;;;;1.52;1.42;;;;;;;13.14;50.21;102617.44;6311602;28;20188;-73
2021/09/18 09:39:52;;;;;;;2.95;1.45;;;;;;;13.38;49.97;102619.84;6312982;28;20184;-72
2021/09/18 09:42:57;;;;;;;1.73;1.67;;;;;;;13.26;49.55;102618.66;6312912;28;20215;-72
2021/09/18 09:46:12;;;;;;;1.33;1.33;;;;;;;13.34;49.71;102623.16;6312200;28;20271;-72
2021/09/18 09:49:17;;;;;;;1.40;1.40;;;;;;;13.29;48.59;102618.28;6311266;28;20581;-72
2021/09/18 09:52:23;;;;;;;8.30;1.63;;;;;;;13.21;49.35;102617.50;6312493;28;20250;-72
2021/09/18 09:55:29;;;;;;;1.35;1.33;;;;;;;13.30;49.56;102622.69;6312330;28;20188;-72
2021/09/18 09:58:54;;;;;;;1.33;1.30;;;;;;;13.32;50.61;102615.16;6311971;28;20187;-72
2021/09/18 10:01:59;;;;;;;1.30;1.30;;;;;;;13.33;50.22;102613.25;6311972;28;20267;-73
2021/09/18 10:05:04;;;;;;;1.20;1.20;;;;;;;13.33;50.16;102611.34;6311081;28;20310;-72
2021/09/18 10:08:11;;;;;;;2.22;1.20;;;;;;;13.44;49.87;102613.59;6312127;28;20207;-72
2021/09/18 10:11:18;;;;;;;1.42;1.30;;;;;;;13.51;49.02;102620.00;6311635;28;20230;-72
2021/09/18 10:14:24;;;;;;;1.60;1.60;;;;;;;13.45;47.76;102619.94;6312410;28;20184;-72
2021/09/18 10:17:29;;;;;;;4.32;1.40;;;;;;;13.46;47.18;102611.50;6312232;28;20187;-73
2021/09/18 10:23:57;;;;;;;1.40;1.40;;;;;;;13.43;47.37;102625.59;6311148;28;20491;-73
2021/09/18 10:27:18;;;;;;;1.35;1.35;;;;;;;13.43;47.57;102627.50;6316454;28;20300;-73
2021/09/18 10:30:33;;;;;;;1.67;1.50;;;;;;;13.41;49.12;102629.56;6317096;28;20261;-73
2021/09/18 10:33:39;;;;;;;1.50;1.50;;;;;;;13.40;47.19;102634.22;6316441;28;20184;-73
2021/09/18 10:36:45;;;;;;;1.27;1.27;;;;;;;13.33;47.88;102625.06;6315665;28;20475;-73
2021/09/18 10:40:01;;;;;;;1.25;1.25;;;;;;;13.20;46.99;102627.63;6315800;28;20522;-73
2021/09/18 10:43:25;;;;;;;1.40;1.40;;;;;;;13.37;47.57;102629.13;6315841;28;20459;-73
2021/09/18 10:46:41;;;;;;;1.20;1.20;;;;;;;13.24;47.54;102639.06;6316400;28;20190;-72
2021/09/18 10:49:45;;;;;;;1.58;1.20;;;;;;;13.19;47.40;102636.91;6316597;28;20184;-72
2021/09/18 10:52:58;;;;;;;2.40;1.23;;;;;;;12.93;47.93;102636.50;6316997;28;20189;-73
2021/09/18 10:56:05;;;;;;;1.42;1.30;;;;;;;12.93;48.23;102640.09;6316397;28;20184;-72
2021/09/18 10:59:12;;;;;;;1.90;1.80;;;;;;;12.91;48.58;102649.56;6316288;28;20194;-72
2021/09/18 11:02:43;;;;;;;1.17;1.17;;;;;;;12.98;50.86;102645.00;6315133;28;20534;-72
2021/09/18 11:05:48;;;;;;;1.77;1.50;;;;;;;12.95;49.56;102650.84;6315928;28;20285;-72
2021/09/18 11:08:53;;;;;;;1.58;1.48;;;;;;;12.98;50.61;102639.53;6314827;28;20273;-72
2021/09/18 11:12:14;;;;;;;1.88;1.30;;;;;;;13.03;50.13;102637.94;6316409;28;20254;-73
2021/09/18 11:15:19;;;;;;;1.23;1.20;;;;;;;13.01;49.47;102639.16;6316076;28;20184;-72
2021/09/18 11:18:36;;;;;;;1.27;1.17;;;;;;;13.21;49.38;102629.34;6316088;28;20187;-73
2021/09/18 11:21:43;;;;;;;1.13;1.13;;;;;;;12.96;49.50;102636.13;6315029;28;20184;-73
2021/09/18 11:24:48;;;;;;;2.50;1.48;;;;;;;12.97;50.45;102633.19;6315906;28;20183;-73
2021/09/18 11:28:01;;;;;;;1.30;1.30;;;;;;;13.08;50.50;102635.50;6316068;28;20249;-73
2021/09/18 11:31:10;;;;;;;1.55;1.55;;;;;;;13.23;50.10;102624.50;6315538;28;20282;-73
2021/09/18 11:34:15;;;;;;;7.13;1.75;;;;;;;13.17;49.97;102626.13;6315485;28;20247;-73
2021/09/18 11:37:27;;;;;;;1.50;1.50;;;;;;;13.06;50.97;102625.72;6313407;28;20414;-73
2021/09/18 11:40:34;;;;;;;1.20;1.20;;;;;;;12.90;50.83;102631.41;6315494;28;20214;-73
2021/09/18 11:43:40;;;;;;;2.45;1.33;;;;;;;12.98;51.75;102620.34;6315713;28;20252;-72
2021/09/18 11:46:45;;;;;;;1.63;1.63;;;;;;;13.02;51.67;102630.72;6315178;28;20183;-73
2021/09/18 11:49:50;;;;;;;1.30;1.30;;;;;;;13.00;51.19;102626.47;6315104;28;20250;-73
2021/09/18 11:52:58;;;;;;;1.75;1.30;;;;;;;12.88;51.40;102633.47;6314124;28;20378;-73
2021/09/18 11:56:02;;;;;;;1.52;1.40;;;;;;;12.98;52.19;102634.03;6315197;28;20233;-73
2021/09/18 11:59:11;;;;;;;1.30;1.30;;;;;;;13.01;52.46;102628.19;6314335;28;20266;-73
2021/09/18 12:02:30;;;;;;;3.97;1.30;;;;;;;13.23;51.34;102619.03;6314819;28;20316;-73
2021/09/18 12:05:34;;;;;;;1.35;1.35;;;;;;;13.38;50.90;102619.84;6313879;28;20438;-72
2021/09/18 12:08:40;;;;;;;1.55;1.55;;;;;;;13.38;51.26;102625.31;6313862;28;20546;-73
2021/09/18 12:11:45;;;;;;;2.60;1.50;;;;;;;13.15;52.41;102619.13;6315130;28;20251;-73
2021/09/18 12:14:54;;;;;;;1.40;1.30;;;;;;;13.08;53.71;102629.16;6314386;28;20187;-73
2021/09/18 12:18:01;;;;;;;1.13;1.13;;;;;;;13.05;51.97;102629.50;6313593;28;20188;-73
2021/09/18 12:21:08;;;;;;;1.30;1.30;;;;;;;13.23;52.81;102630.00;6313429;28;20359;-73
2021/09/18 12:24:14;;;;;;;1.30;1.30;;;;;;;13.33;51.75;102621.50;6314398;28;20237;-73
2021/09/18 12:27:27;;;;;;;4.57;1.50;;;;;;;13.40;51.90;102628.75;6314232;28;20221;-73
2021/09/18 12:30:42;;;;;;;1.40;1.30;;;;;;;13.24;52.08;102628.97;6314186;28;20271;-73
2021/09/18 12:33:49;;;;;;;1.73;1.70;;;;;;;13.21;52.74;102634.81;6314487;28;20184;-73
2021/09/18 12:37:07;;;;;;;2.28;1.40;;;;;;;12.95;52.41;102638.03;6314149;28;20184;-73
2021/09/18 12:40:16;;;;;;;1.17;1.10;;;;;;;13.38;51.67;102628.06;6313364;28;20188;-73
2021/09/18 12:43:22;;;;;;;2.35;1.20;;;;;;;13.46;51.13;102627.97;6313183;28;20437;-73
2021/09/18 12:46:31;;;;;;;2.08;1.50;;;;;;;13.56;51.23;102633.97;6314362;28;20251;-73
2021/09/18 12:49:37;;;;;;;1.20;1.20;;;;;;;13.47;51.00;102624.19;6312345;28;20519;-73
2021/09/18 12:52:41;;;;;;;1.60;1.60;;;;;;;13.38;50.82;102625.31;6312597;28;20494;-73
2021/09/18 12:56:06;;;;;;;1.58;1.35;;;;;;;13.32;50.25;102626.13;6313653;28;20184;-73
2021/09/18 12:59:16;;;;;;;2.25;1.50;;;;;;;13.25;50.81;102625.16;6312300;28;20188;-73
2021/09/18 13:02:21;;;;;;;1.20;1.20;;;;;;;13.20;50.95;102618.56;6312018;28;20405;-73
2021/09/18 13:05:28;;;;;;;1.30;1.30;;;;;;;13.37;50.19;102618.16;6313032;28;20191;-73
2021/09/18 13:08:46;;;;;;;1.30;1.30;;;;;;;13.24;50.33;102618.00;6313509;28;20214;-73
2021/09/18 13:11:59;;;;;;;1.40;1.40;;;;;;;13.19;50.48;102628.69;6313031;28;20215;-72
2021/09/18 13:15:11;;;;;;;1.20;1.20;;;;;;;13.27;49.52;102628.59;6312964;28;20191;-73
2021/09/18 13:18:21;;;;;;;1.38;1.38;;;;;;;13.24;49.35;102618.00;6312003;28;20188;-73
2021/09/18 13:21:27;;;;;;;1.40;1.30;;;;;;;13.35;49.71;102623.00;6312983;28;20184;-72
2021/09/18 13:24:31;;;;;;;1.40;1.40;;;;;;;13.38;51.41;102621.75;6312783;28;20206;-72
2021/09/18 13:27:36;;;;;;;2.05;1.35;;;;;;;13.43;49.50;102617.38;6313074;28;20188;-72
2021/09/18 13:30:41;;;;;;;1.30;1.30;;;;;;;13.47;49.17;102623.34;6312029;28;20243;-72
2021/09/18 13:33:46;;;;;;;1.67;1.50;;;;;;;13.44;50.02;102630.06;6312575;28;20221;-72
2021/09/18 13:36:51;;;;;;;1.40;1.30;;;;;;;13.41;50.71;102630.44;6311775;28;20267;-72
2021/09/18 13:39:55;;;;;;;1.73;1.63;;;;;;;13.34;50.34;102634.13;6312764;28;20192;-73
2021/09/18 13:42:59;;;;;;;2.67;1.50;;;;;;;13.40;52.02;102620.53;6312639;28;20278;-73
2021/09/18 13:46:04;;;;;;;1.52;1.52;;;;;;;13.24;50.86;102617.13;6311945;28;20188;-73
2021/09/18 13:49:08;;;;;;;2.17;1.20;;;;;;;13.14;51.56;102628.41;6312617;28;20211;-73
2021/09/18 13:52:14;;;;;;;1.50;1.50;;;;;;;13.16;51.38;102615.34;6312779;28;20188;-73
2021/09/18 13:55:18;;;;;;;1.30;1.30;;;;;;;13.23;51.35;102619.03;6311416;28;20191;-73
2021/09/18 13:58:27;;;;;;;1.48;1.38;;;;;;;13.15;50.59;102619.13;6312635;28;20196;-73
2021/09/18 14:01:31;;;;;;;2.30;1.50;;;;;;;13.08;50.82;102609.97;6311987;28;20189;-73
2021/09/18 14:04:36;;;;;;;1.73;1.63;;;;;;;13.23;50.56;102627.25;6311022;28;20227;-73
2021/09/18 14:07:44;;;;;;;1.52;1.52;;;;;;;13.26;50.32;102621.38;6312555;28;20215;-73
2021/09/18 14:10:48;;;;;;;2.28;1.60;;;;;;;13.38;49.83;102619.84;6312136;28;20218;-73
2021/09/18 14:13:53;;;;;;;1.52;1.42;;;;;;;13.50;50.09;102618.31;6312171;28;20254;-73
2021/09/18 14:16:58;;;;;;;1.63;1.58;;;;;;;13.36;51.49;102619.19;6312525;28;20190;-73
2021/09/18 14:20:02;;;;;;;1.50;1.50;;;;;;;13.07;52.64;102627.47;6311176;28;20502;-73
2021/09/18 14:23:08;;;;;;;1.98;1.88;;;;;;;13.26;51.94;102624.13;6312125;28;20183;-73
2021/09/18 14:26:15;;;;;;;1.85;1.75;;;;;;;13.23;52.07;102635.47;6310853;28;20414;-73
2021/09/18 14:29:19;;;;;;;2.20;1.98;;;;;;;13.32;52.48;102634.34;6311468;28;20297;-73